Time;durP1;ratioP1;P1;durP2;ratioP2;P2;SDS_P1;SDS_P2;PMS_P1;PMS_P2;Temp;Humidity;BMP_temperature;BMP_pressure;BME280_temperature;BME280_humidity;BME280_pressure;Samples;Min_cycle;Max_cycle;Signal;HPM_P1;HPM_P2
2023/03/21 00:00:41;;;;;;;25.48;15.55;;;;;;;;;;2039908;29;20019;-89
2023/03/21 00:01:42;;;;;;;24.92;16.85;;;;;;;;;;2039184;29;20091;-87
2023/03/21 00:02:42;;;;;;;;;;;;;;;;;;2039717;29;20110;-87
2023/03/21 00:03:42;;;;;;;24.83;14.48;;;;;;;;;;2039252;29;20333;-87
2023/03/21 00:04:43;;;;;;;25.50;15.68;;;;;;;;;;2031385;29;20119;-86
2023/03/21 00:05:50;;;;;;;;;;;;;;;;;;2039814;29;20478;-86
2023/03/21 00:06:51;;;;;;;25.15;15.30;;;;;;;;;;2042771;28;20248;-89
2023/03/21 00:07:51;;;;;;;;;;;;;;;;;;2039680;29;20038;-86
2023/03/21 00:08:52;;;;;;;25.70;15.57;;;;;;;;;;2041356;29;20024;-89
2023/03/21 00:09:52;;;;;;;;;;;;;;;;;;2050954;29;20272;-87
2023/03/21 00:10:58;;;;;;;26.47;16.07;;;;;;;;;;2049489;29;19987;-87
2023/03/21 00:12:00;;;;;;;25.70;14.85;;;;;;;;;;2050472;28;20032;-88
2023/03/21 00:13:00;;;;;;;27.30;15.52;;;;;;;;;;2045794;29;20038;-88
2023/03/21 00:14:01;;;;;;;;;;;;;;;;;;2041406;29;20063;-87
2023/03/21 00:15:07;;;;;;;27.23;15.57;;;;;;;;;;2039308;29;19926;-87
2023/03/21 00:16:14;;;;;;;29.65;16.15;;;;;;;;;;2032133;29;20119;-87
2023/03/21 00:17:14;;;;;;;29.90;15.48;;;;;;;;;;2031832;29;20115;-88
2023/03/21 00:18:15;;;;;;;;;;;;;;;;;;2039722;29;20024;-88
2023/03/21 00:19:19;;;;;;;27.23;14.48;;;;;;;;;;2040088;29;19918;-87
2023/03/21 00:20:22;;;;;;;25.88;14.65;;;;;;;;;;2038956;29;20221;-87
2023/03/21 00:21:27;;;;;;;22.25;14.30;;;;;;;;;;2039056;29;20261;-88
2023/03/21 00:22:27;;;;;;;26.15;15.25;;;;;;;;;;2039977;29;20026;-87
2023/03/21 00:23:28;;;;;;;;;;;;;;;;;;2039839;29;20043;-87
2023/03/21 00:24:29;;;;;;;28.52;15.10;;;;;;;;;;2039195;29;19918;-87
2023/03/21 00:25:31;;;;;;;26.70;15.25;;;;;;;;;;2039067;29;20032;-88
2023/03/21 00:26:32;;;;;;;24.33;15.02;;;;;;;;;;2034775;29;20032;-86
2023/03/21 00:27:33;;;;;;;;;;;;;;;;;;2046606;29;20055;-87
2023/03/21 00:28:33;;;;;;;28.07;14.50;;;;;;;;;;2026954;29;19953;-88
2023/03/21 00:29:33;;;;;;;;;;;;;;;;;;2049771;28;20271;-88
2023/03/21 00:30:34;;;;;;;26.40;14.90;;;;;;;;;;2049894;28;19946;-88
2023/03/21 00:31:34;;;;;;;;;;;;;;;;;;2049910;28;20091;-88
2023/03/21 00:32:35;;;;;;;27.43;14.90;;;;;;;;;;2045299;29;19910;-88
2023/03/21 00:33:37;;;;;;;28.60;15.43;;;;;;;;;;2045537;29;20028;-88
2023/03/21 00:34:38;;;;;;;26.42;14.20;;;;;;;;;;2041388;29;20034;-87
2023/03/21 00:35:42;;;;;;;;;;;;;;;;;;2040047;29;20034;-87
2023/03/21 00:36:42;;;;;;;22.13;14.23;;;;;;;;;;2038950;29;19918;-87
2023/03/21 00:37:43;;;;;;;;;;;;;;;;;;2039541;29;20122;-88
2023/03/21 00:38:43;;;;;;;21.87;14.70;;;;;;;;;;2046995;29;19929;-87
2023/03/21 00:39:47;;;;;;;27.85;15.43;;;;;;;;;;2039862;29;20028;-87
2023/03/21 00:40:48;;;;;;;21.50;13.25;;;;;;;;;;2039011;29;20485;-87
2023/03/21 00:41:49;;;;;;;22.63;14.07;;;;;;;;;;2039087;29;20032;-88
2023/03/21 00:42:49;;;;;;;;;;;;;;;;;;2040204;29;20038;-87
2023/03/21 00:43:50;;;;;;;23.37;14.07;;;;;;;;;;2039859;29;19910;-87
2023/03/21 00:44:51;;;;;;;22.15;13.35;;;;;;;;;;2046917;29;20034;-87
2023/03/21 00:45:51;;;;;;;23.95;13.93;;;;;;;;;;2046909;29;20031;-88
2023/03/21 00:46:51;;;;;;;;;;;;;;;;;;2039504;29;20035;-88
2023/03/21 00:47:52;;;;;;;23.27;14.20;;;;;;;;;;2039103;29;19917;-88
2023/03/21 00:48:52;;;;;;;24.23;13.68;;;;;;;;;;2039608;29;20510;-87
2023/03/21 00:49:52;;;;;;;;;;;;;;;;;;2039395;29;20024;-87
2023/03/21 00:50:56;;;;;;;25.40;13.90;;;;;;;;;;2039028;29;20366;-87
2023/03/21 00:51:56;;;;;;;23.60;13.32;;;;;;;;;;2039024;29;20024;-87
2023/03/21 00:52:56;;;;;;;;;;;;;;;;;;2031560;29;20091;-88
2023/03/21 00:53:57;;;;;;;22.08;13.77;;;;;;;;;;2031138;29;19946;-87
2023/03/21 00:54:58;;;;;;;;;;;;;;;;;;2039291;29;20103;-87
2023/03/21 00:55:58;;;;;;;23.57;14.07;;;;;;;;;;2039768;29;19911;-87
2023/03/21 00:56:58;;;;;;;;;;;;;;;;;;2040074;29;20415;-87
2023/03/21 00:57:59;;;;;;;26.13;14.65;;;;;;;;;;2046419;28;19951;-87
2023/03/21 00:59:00;;;;;;;24.38;13.88;;;;;;;;;;2038751;29;20024;-87
2023/03/21 01:00:00;;;;;;;;;;;;;;;;;;2031528;29;20083;-87
2023/03/21 01:01:01;;;;;;;26.35;16.10;;;;;;;;;;1694765;29;10106130;-88
2023/03/21 01:02:05;;;;;;;;;;;;;;;;;;2040179;29;20297;-87
2023/03/21 01:03:08;;;;;;;23.98;14.30;;;;;;;;;;2040112;29;19915;-87
2023/03/21 01:04:13;;;;;;;25.48;14.45;;;;;;;;;;2039299;29;20167;-88
2023/03/21 01:06:00;;;;;;;24.75;15.07;;;;;;;;;;2039584;29;20051;-87
2023/03/21 01:06:39;;;;;;;22.08;13.95;;;;;;;;;;2040108;29;20030;-87
2023/03/21 01:07:40;;;;;;;24.80;14.43;;;;;;;;;;2039276;29;20043;-87
2023/03/21 01:08:42;;;;;;;;;;;;;;;;;;2039534;29;20551;-88
2023/03/21 01:09:42;;;;;;;24.25;14.30;;;;;;;;;;2038793;29;19910;-88
2023/03/21 01:10:45;;;;;;;23.42;13.40;;;;;;;;;;2038950;29;20114;-88
2023/03/21 01:11:46;;;;;;;24.92;13.52;;;;;;;;;;2039721;28;20026;-88
2023/03/21 01:12:46;;;;;;;;;;;;;;;;;;2039401;29;20120;-88
2023/03/21 01:13:47;;;;;;;26.10;15.13;;;;;;;;;;2031074;29;20529;-87
2023/03/21 01:14:47;;;;;;;25.98;15.02;;;;;;;;;;2031033;29;20090;-87
2023/03/21 01:15:53;;;;;;;24.48;14.82;;;;;;;;;;2038836;29;20055;-88
2023/03/21 01:16:53;;;;;;;25.60;15.32;;;;;;;;;;2039865;29;20035;-87
2023/03/21 01:17:53;;;;;;;;;;;;;;;;;;2039224;29;20627;-88
2023/03/21 01:18:54;;;;;;;28.10;15.40;;;;;;;;;;2038972;29;20493;-88
2023/03/21 01:19:55;;;;;;;24.38;15.40;;;;;;;;;;2041794;29;20035;-86
2023/03/21 01:20:57;;;;;;;;;;;;;;;;;;2048696;29;20019;-85
2023/03/21 01:21:58;;;;;;;26.52;16.55;;;;;;;;;;2039501;29;19911;-87
2023/03/21 01:22:58;;;;;;;25.50;15.48;;;;;;;;;;2039314;29;20031;-87
2023/03/21 01:24:00;;;;;;;;;;;;;;;;;;2039753;29;20035;-89
2023/03/21 01:25:00;;;;;;;21.98;14.60;;;;;;;;;;2038911;29;20410;-88
2023/03/21 01:26:01;;;;;;;;;;;;;;;;;;2039750;29;20043;-87
2023/03/21 01:27:02;;;;;;;26.70;15.10;;;;;;;;;;2039579;29;19961;-87
2023/03/21 01:28:03;;;;;;;24.00;14.63;;;;;;;;;;2046960;29;20042;-89
2023/03/21 01:29:04;;;;;;;25.83;14.43;;;;;;;;;;2046981;29;20495;-89
2023/03/21 01:30:06;;;;;;;;;;;;;;;;;;2040205;29;20055;-87
2023/03/21 01:31:08;;;;;;;24.60;15.05;;;;;;;;;;2039576;29;20290;-87
2023/03/21 01:32:09;;;;;;;24.25;14.52;;;;;;;;;;2039727;29;20075;-88
2023/03/21 01:33:11;;;;;;;;;;;;;;;;;;2040037;29;20074;-87
2023/03/21 01:34:12;;;;;;;24.00;14.82;;;;;;;;;;2039095;29;19946;-89
2023/03/21 01:35:12;;;;;;;;;;;;;;;;;;2039223;29;20115;-87
2023/03/21 01:36:20;;;;;;;24.40;14.37;;;;;;;;;;2038815;29;19911;-87
2023/03/21 01:37:21;;;;;;;24.48;14.13;;;;;;;;;;2031653;29;20020;-87
2023/03/21 01:38:22;;;;;;;22.75;14.10;;;;;;;;;;2039285;29;20024;-87
2023/03/21 01:39:22;;;;;;;;;;;;;;;;;;2040631;29;20024;-88
2023/03/21 01:40:25;;;;;;;24.60;14.87;;;;;;;;;;2047297;29;19933;-87
2023/03/21 01:41:31;;;;;;;25.88;15.38;;;;;;;;;;2039070;29;20024;-87
2023/03/21 01:42:32;;;;;;;24.67;14.80;;;;;;;;;;2031817;29;20439;-88
2023/03/21 01:43:33;;;;;;;;;;;;;;;;;;2039598;29;20055;-87
2023/03/21 01:44:58;;;;;;;24.50;15.00;;;;;;;;;;2039011;29;19911;-87
2023/03/21 01:46:20;;;;;;;23.75;14.95;;;;;;;;;;2039528;29;20099;-88
2023/03/21 01:47:20;;;;;;;29.88;15.55;;;;;;;;;;2039442;29;20015;-88
2023/03/21 01:48:21;;;;;;;;;;;;;;;;;;2040084;29;20012;-87
2023/03/21 01:49:27;;;;;;;31.58;16.38;;;;;;;;;;2038745;29;19915;-87
2023/03/21 01:50:28;;;;;;;25.55;14.98;;;;;;;;;;2038662;29;20028;-88
2023/03/21 01:51:30;;;;;;;;;;;;;;;;;;2040256;29;20028;-87
2023/03/21 01:52:36;;;;;;;25.13;16.05;;;;;;;;;;2038770;29;19911;-88
2023/03/21 01:53:39;;;;;;;28.48;16.05;;;;;;;;;;2038984;29;20028;-88
2023/03/21 01:54:42;;;;;;;21.88;14.48;;;;;;;;;;2038706;29;20047;-87
2023/03/21 01:55:42;;;;;;;25.05;15.05;;;;;;;;;;2038839;29;20075;-87
2023/03/21 01:56:45;;;;;;;;;;;;;;;;;;2039338;29;20034;-88
2023/03/21 01:57:53;;;;;;;28.40;15.52;;;;;;;;;;2038812;29;19915;-87
2023/03/21 01:59:10;;;;;;;26.16;15.47;;;;;;;;;;1961325;29;10001884;-88
2023/03/21 02:00:14;;;;;;;26.42;16.38;;;;;;;;;;2032917;29;20278;-88
2023/03/21 02:01:14;;;;;;;27.23;15.57;;;;;;;;;;2038715;29;20436;-87
2023/03/21 02:02:19;;;;;;;;;;;;;;;;;;2039094;29;20027;-87
2023/03/21 02:03:20;;;;;;;25.15;14.52;;;;;;;;;;2038920;29;19957;-87
2023/03/21 02:04:26;;;;;;;;;;;;;;;;;;2039940;29;20107;-87
2023/03/21 02:05:41;;;;;;;27.10;15.77;;;;;;;;;;2042559;28;19911;-88
2023/03/21 02:06:42;;;;;;;25.02;14.77;;;;;;;;;;2038810;29;20027;-87
2023/03/21 02:07:43;;;;;;;30.13;16.60;;;;;;;;;;2038976;29;20522;-87
2023/03/21 02:08:44;;;;;;;;;;;;;;;;;;2040100;29;20141;-87
2023/03/21 02:09:47;;;;;;;24.33;15.48;;;;;;;;;;2039084;29;19915;-87
2023/03/21 02:10:49;;;;;;;26.10;14.52;;;;;;;;;;2038349;29;20458;-87
2023/03/21 02:11:49;;;;;;;25.58;15.18;;;;;;;;;;2038816;29;20110;-86
2023/03/21 02:12:50;;;;;;;;;;;;;;;;;;2040708;29;20380;-87
2023/03/21 02:13:50;;;;;;;25.63;15.67;;;;;;;;;;2042189;29;19926;-85
2023/03/21 02:14:51;;;;;;;28.45;14.90;;;;;;;;;;2045203;29;20024;-88
2023/03/21 02:16:11;;;;;;;23.02;14.75;;;;;;;;;;1690927;29;10247980;-87
2023/03/21 02:17:19;;;;;;;25.55;14.40;;;;;;;;;;2038998;29;20590;-88
2023/03/21 02:18:29;;;;;;;22.92;15.18;;;;;;;;;;2031984;29;20122;-87
2023/03/21 02:19:49;;;;;;;26.55;16.27;;;;;;;;;;2032123;29;20051;-87
2023/03/21 02:21:04;;;;;;;21.50;15.20;;;;;;;;;;2039422;29;20028;-88
2023/03/21 02:22:15;;;;;;;26.17;15.73;;;;;;;;;;2038761;29;20027;-89
2023/03/21 02:23:24;;;;;;;24.73;15.25;;;;;;;;;;2039076;29;20027;-88
2023/03/21 02:24:55;;;;;;;28.40;16.02;;;;;;;;;;2039111;29;20184;-88
2023/03/21 02:26:28;;;;;;;24.27;14.75;;;;;;;;;;2039327;29;20173;-87
2023/03/21 02:27:36;;;;;;;26.17;16.80;;;;;;;;;;2040781;29;20032;-88
2023/03/21 02:28:53;;;;;;;29.90;17.60;;;;;;;;;;2040074;29;20027;-88
2023/03/21 02:30:11;;;;;;;28.52;16.77;;;;;;;;;;2039487;29;20034;-89
2023/03/21 02:31:25;;;;;;;25.90;15.98;;;;;;;;;;2039412;29;20020;-89
2023/03/21 02:32:49;;;;;;;30.80;16.02;;;;;;;;;;2038590;29;20058;-88
2023/03/21 02:34:34;;;;;;;26.60;16.75;;;;;;;;;;2038905;29;20518;-86
2023/03/21 02:36:05;;;;;;;26.80;15.25;;;;;;;;;;2038758;29;20506;-87
2023/03/21 02:37:20;;;;;;;24.42;14.23;;;;;;;;;;2034649;29;20023;-88
2023/03/21 02:38:27;;;;;;;26.73;14.10;;;;;;;;;;2038987;29;20023;-88
2023/03/21 02:39:56;;;;;;;25.42;13.55;;;;;;;;;;2038548;29;20035;-88
2023/03/21 02:41:06;;;;;;;22.70;12.77;;;;;;;;;;2037399;29;20184;-89
2023/03/21 02:42:33;;;;;;;19.27;12.50;;;;;;;;;;2038701;29;20034;-88
2023/03/21 02:43:43;;;;;;;26.17;13.23;;;;;;;;;;2031209;29;20696;-89
2023/03/21 02:44:52;;;;;;;24.95;12.77;;;;;;;;;;1697415;29;10049922;-89
2023/03/21 02:46:05;;;;;;;22.92;14.18;;;;;;;;;;2039571;29;20087;-88
2023/03/21 02:47:16;;;;;;;25.33;14.15;;;;;;;;;;2039490;29;20439;-88
2023/03/21 02:48:28;;;;;;;24.17;13.73;;;;;;;;;;2049426;28;20024;-88
2023/03/21 02:49:42;;;;;;;25.33;13.93;;;;;;;;;;2049906;28;20028;-89
2023/03/21 02:50:53;;;;;;;32.90;14.55;;;;;;;;;;2045853;28;20358;-88
2023/03/21 02:52:01;;;;;;;27.25;13.55;;;;;;;;;;2033807;29;20028;-88
2023/03/21 02:53:05;;;;;;;25.58;13.35;;;;;;;;;;2039922;29;20028;-88
2023/03/21 02:54:11;;;;;;;24.52;14.48;;;;;;;;;;2039251;28;20466;-88
2023/03/21 02:55:24;;;;;;;25.55;14.40;;;;;;;;;;2038496;29;20019;-88
2023/03/21 02:56:27;;;;;;;24.30;13.45;;;;;;;;;;2043056;29;20035;-88
2023/03/21 02:57:27;;;;;;;26.10;15.73;;;;;;;;;;2047258;29;20034;-88
2023/03/21 02:58:30;;;;;;;29.13;15.55;;;;;;;;;;2047267;28;20509;-88
2023/03/21 02:59:32;;;;;;;27.40;15.35;;;;;;;;;;2047443;28;20051;-88
2023/03/21 03:00:34;;;;;;;26.92;15.30;;;;;;;;;;2038439;29;20023;-88
2023/03/21 03:01:35;;;;;;;24.83;15.73;;;;;;;;;;2038680;29;20031;-87
2023/03/21 03:02:36;;;;;;;;;;;;;;;;;;2047714;29;20151;-87
2023/03/21 03:03:38;;;;;;;;;;;;;;;;;;2047779;28;19957;-86
2023/03/21 03:04:38;;;;;;;27.35;14.82;;;;;;;;;;2038500;29;20298;-87
2023/03/21 03:05:47;;;;;;;;;;;;;;;;;;2031102;29;20290;-86
2023/03/21 03:06:57;;;;;;;25.00;15.32;;;;;;;;;;2041138;29;19914;-87
2023/03/21 03:08:34;;;;;;;25.40;15.25;;;;;;;;;;2046662;29;20486;-86
2023/03/21 03:10:09;;;;;;;24.92;13.55;;;;;;;;;;2045829;28;20087;-86
2023/03/21 03:11:25;;;;;;;26.75;15.52;;;;;;;;;;2043790;29;20036;-87
2023/03/21 03:12:30;;;;;;;23.60;15.93;;;;;;;;;;2043761;29;20193;-88
2023/03/21 03:13:50;;;;;;;28.90;15.68;;;;;;;;;;2049102;29;20521;-88
2023/03/21 03:15:21;;;;;;;27.00;15.65;;;;;;;;;;2047643;29;20138;-88
2023/03/21 03:16:53;;;;;;;29.50;17.13;;;;;;;;;;2047084;29;20031;-88
2023/03/21 03:18:32;;;;;;;25.48;15.23;;;;;;;;;;2014258;29;20028;-88
2023/03/21 03:19:40;;;;;;;24.98;15.90;;;;;;;;;;2035177;29;20672;-88
2023/03/21 03:20:56;;;;;;;21.15;13.98;;;;;;;;;;2031447;29;20506;-88
2023/03/21 03:22:09;;;;;;;24.60;15.23;;;;;;;;;;2039189;29;20427;-88
2023/03/21 03:23:15;;;;;;;27.13;15.73;;;;;;;;;;2033591;29;20036;-87
2023/03/21 03:24:28;;;;;;;27.35;15.43;;;;;;;;;;2032419;29;20028;-88
2023/03/21 03:25:39;;;;;;;25.20;15.43;;;;;;;;;;2033595;29;20032;-88
2023/03/21 03:26:42;;;;;;;;;;;;;;;;;;2041978;29;20027;-88
2023/03/21 03:27:44;;;;;;;24.05;14.85;;;;;;;;;;2039671;29;19915;-88
2023/03/21 03:28:49;;;;;;;25.92;16.63;;;;;;;;;;2039824;29;20322;-87
2023/03/21 03:29:50;;;;;;;30.60;15.75;;;;;;;;;;2048282;29;20030;-86
2023/03/21 03:30:54;;;;;;;23.70;15.18;;;;;;;;;;2039730;29;20034;-87
2023/03/21 03:32:00;;;;;;;29.67;16.75;;;;;;;;;;2032713;29;20035;-87
2023/03/21 03:33:02;;;;;;;31.15;16.35;;;;;;;;;;2041851;29;20024;-86
2023/03/21 03:34:10;;;;;;;26.75;15.80;;;;;;;;;;2049885;29;20055;-87
2023/03/21 03:35:13;;;;;;;24.17;15.00;;;;;;;;;;2048439;29;20102;-86
2023/03/21 03:36:16;;;;;;;24.60;15.73;;;;;;;;;;2048523;28;20051;-88
2023/03/21 03:37:20;;;;;;;25.90;15.43;;;;;;;;;;2039835;29;20182;-88
2023/03/21 03:38:23;;;;;;;27.52;14.75;;;;;;;;;;2032375;29;20012;-87
2023/03/21 03:39:32;;;;;;;26.40;14.57;;;;;;;;;;2039957;29;20182;-87
2023/03/21 03:40:40;;;;;;;26.98;15.13;;;;;;;;;;2039850;29;20027;-87
2023/03/21 03:41:45;;;;;;;23.92;14.93;;;;;;;;;;2032760;29;20591;-87
2023/03/21 03:42:52;;;;;;;24.67;15.00;;;;;;;;;;2032319;29;20483;-88
2023/03/21 03:43:58;;;;;;;24.52;14.98;;;;;;;;;;2040377;29;20032;-87
2023/03/21 03:44:59;;;;;;;23.95;14.45;;;;;;;;;;2047727;29;20082;-88
2023/03/21 03:46:03;;;;;;;;;;;;;;;;;;2048862;28;20082;-88
2023/03/21 03:47:07;;;;;;;24.52;14.73;;;;;;;;;;2039380;29;20302;-88
2023/03/21 03:48:30;;;;;;;25.42;16.10;;;;;;;;;;2040211;29;20051;-89
2023/03/21 03:49:50;;;;;;;23.15;15.27;;;;;;;;;;2039696;29;20031;-87
2023/03/21 03:51:02;;;;;;;26.88;15.77;;;;;;;;;;2042104;29;20039;-87
2023/03/21 03:52:18;;;;;;;29.25;16.08;;;;;;;;;;2039715;29;20028;-88
2023/03/21 03:53:29;;;;;;;25.40;15.55;;;;;;;;;;2041711;29;20350;-87
2023/03/21 03:54:35;;;;;;;25.15;16.48;;;;;;;;;;2041255;29;20613;-87
2023/03/21 03:55:37;;;;;;;26.65;15.32;;;;;;;;;;2039949;29;20436;-87
2023/03/21 03:56:39;;;;;;;26.33;16.42;;;;;;;;;;2040494;29;20526;-87
2023/03/21 03:57:40;;;;;;;27.15;15.02;;;;;;;;;;2040299;29;20455;-87
2023/03/21 03:58:41;;;;;;;;;;;;;;;;;;2041103;29;20042;-87
2023/03/21 03:59:44;;;;;;;28.65;16.05;;;;;;;;;;2040762;29;20006;-87
2023/03/21 04:00:45;;;;;;;31.88;17.33;;;;;;;;;;2042603;29;20043;-87
2023/03/21 04:01:45;;;;;;;;;;;;;;;;;;2047501;29;20024;-87
2023/03/21 04:02:45;;;;;;;29.37;16.47;;;;;;;;;;2031699;29;20383;-88
2023/03/21 04:03:48;;;;;;;;;;;;;;;;;;2040053;29;20115;-88
2023/03/21 04:04:51;;;;;;;27.25;15.63;;;;;;;;;;2047859;29;19910;-88
2023/03/21 04:05:52;;;;;;;28.70;17.25;;;;;;;;;;2040524;29;20128;-88
2023/03/21 04:06:57;;;;;;;24.25;14.45;;;;;;;;;;1800348;29;10250976;-88
2023/03/21 04:07:57;;;;;;;29.95;15.75;;;;;;;;;;2047698;29;20240;-88
2023/03/21 04:08:58;;;;;;;;;;;;;;;;;;2048055;29;20031;-88
2023/03/21 04:09:58;;;;;;;24.55;15.35;;;;;;;;;;2040489;29;19926;-88
2023/03/21 04:11:00;;;;;;;;;;;;;;;;;;2040184;29;20087;-88
2023/03/21 04:12:01;;;;;;;33.42;16.80;;;;;;;;;;2031913;29;19918;-88
2023/03/21 04:13:02;;;;;;;28.75;16.80;;;;;;;;;;1692655;29;10001055;-88
2023/03/21 04:14:02;;;;;;;28.35;15.88;;;;;;;;;;2031925;29;20032;-88
2023/03/21 04:15:02;;;;;;;;;;;;;;;;;;2023978;29;20047;-88
2023/03/21 04:16:03;;;;;;;28.27;16.10;;;;;;;;;;2047701;29;20334;-88
2023/03/21 04:17:04;;;;;;;25.55;16.00;;;;;;;;;;2047582;29;20157;-88
2023/03/21 04:18:04;;;;;;;;;;;;;;;;;;2039952;29;20070;-88
2023/03/21 04:19:05;;;;;;;29.45;17.63;;;;;;;;;;2031982;29;19919;-88
2023/03/21 04:20:09;;;;;;;29.83;16.45;;;;;;;;;;2039968;29;21135;-87
2023/03/21 04:21:12;;;;;;;27.17;16.50;;;;;;;;;;2039580;29;20610;-88
2023/03/21 04:22:13;;;;;;;28.23;16.63;;;;;;;;;;2032136;29;20020;-88
2023/03/21 04:23:13;;;;;;;;;;;;;;;;;;2040263;29;20087;-89
2023/03/21 04:24:14;;;;;;;26.63;15.93;;;;;;;;;;2040641;29;20376;-88
2023/03/21 04:25:14;;;;;;;30.67;17.73;;;;;;;;;;2039379;29;20023;-87
2023/03/21 04:26:15;;;;;;;28.48;15.93;;;;;;;;;;2031541;29;20337;-87
2023/03/21 04:27:15;;;;;;;;;;;;;;;;;;2033407;29;20024;-88
2023/03/21 04:30:59;;;;;;;33.83;16.80;;;;;;;;;;1653887;23;20134;-87
2023/03/21 04:32:00;;;;;;;27.30;16.50;;;;;;;;;;2047730;29;20049;-89
2023/03/21 04:33:00;;;;;;;26.27;16.00;;;;;;;;;;2046876;28;20034;-88
2023/03/21 04:34:02;;;;;;;;;;;;;;;;;;2048111;29;20035;-87
2023/03/21 04:35:03;;;;;;;30.63;17.17;;;;;;;;;;2047880;28;20052;-88
2023/03/21 04:36:05;;;;;;;;;;;;;;;;;;2039690;29;20099;-87
2023/03/21 04:37:12;;;;;;;31.48;18.27;;;;;;;;;;2039208;29;20382;-87
2023/03/21 04:38:12;;;;;;;32.08;17.25;;;;;;;;;;2050329;28;20495;-87
2023/03/21 04:39:13;;;;;;;;;;;;;;;;;;2047523;29;20027;-88
2023/03/21 04:40:17;;;;;;;29.53;16.97;;;;;;;;;;2046802;29;19910;-87
2023/03/21 04:41:18;;;;;;;28.35;17.92;;;;;;;;;;2039099;29;20027;-88
2023/03/21 04:42:21;;;;;;;;;;;;;;;;;;2031909;29;20472;-87
2023/03/21 04:43:27;;;;;;;25.48;15.45;;;;;;;;;;2046326;29;20033;-96
2023/03/21 04:44:31;;;;;;;34.95;16.52;;;;;;;;;;2047147;29;20031;-96
2023/03/21 04:45:38;;;;;;;30.90;15.82;;;;;;;;;;2038818;29;20059;-96
2023/03/21 04:46:44;;;;;;;30.65;16.10;;;;;;;;;;2038736;29;20044;-96
2023/03/21 04:47:46;;;;;;;30.17;17.48;;;;;;;;;;2040218;29;20111;-88
2023/03/21 04:48:46;;;;;;;33.17;17.58;;;;;;;;;;2047542;29;20454;-87
2023/03/21 04:49:50;;;;;;;;;;;;;;;;;;2047443;29;20105;-87
2023/03/21 04:50:51;;;;;;;32.40;18.25;;;;;;;;;;2047312;29;20349;-87
2023/03/21 04:51:51;;;;;;;;;;;;;;;;;;2047512;29;20023;-87
2023/03/21 04:52:51;;;;;;;36.20;19.57;;;;;;;;;;2038841;29;19918;-87
2023/03/21 04:53:56;;;;;;;;;;;;;;;;;;2032864;29;20091;-87
2023/03/21 04:54:56;;;;;;;35.88;19.42;;;;;;;;;;2046001;29;19911;-87
2023/03/21 04:55:57;;;;;;;;;;;;;;;;;;2051084;29;20061;-88
2023/03/21 04:56:58;;;;;;;34.27;17.97;;;;;;;;;;2039647;29;19910;-88
2023/03/21 04:57:58;;;;;;;32.58;18.90;;;;;;;;;;2039654;29;20032;-88
2023/03/21 04:58:59;;;;;;;;;;;;;;;;;;2047608;29;20042;-88
2023/03/21 05:00:00;;;;;;;29.48;16.45;;;;;;;;;;2039150;29;19921;-87
2023/03/21 05:01:04;;;;;;;;;;;;;;;;;;2031712;29;20705;-88
2023/03/21 05:02:06;;;;;;;25.38;16.42;;;;;;;;;;2039183;29;19911;-87
2023/03/21 05:03:07;;;;;;;30.90;19.30;;;;;;;;;;2039381;29;20091;-86
2023/03/21 05:04:09;;;;;;;29.35;17.63;;;;;;;;;;2048299;29;20027;-88
2023/03/21 05:05:10;;;;;;;32.90;18.20;;;;;;;;;;2047988;29;20054;-88
2023/03/21 05:06:11;;;;;;;29.40;16.58;;;;;;;;;;2037558;29;20138;-86
2023/03/21 05:07:11;;;;;;;;;;;;;;;;;;2048296;29;20490;-87
2023/03/21 05:08:13;;;;;;;35.93;19.00;;;;;;;;;;2039357;29;20175;-89
2023/03/21 05:09:13;;;;;;;26.63;16.02;;;;;;;;;;2031217;29;20074;-87
2023/03/21 05:10:13;;;;;;;;;;;;;;;;;;2039966;29;20674;-89
2023/03/21 05:11:14;;;;;;;31.80;19.10;;;;;;;;;;2047753;29;20311;-88
2023/03/21 05:12:14;;;;;;;31.02;17.90;;;;;;;;;;2047569;29;20031;-88
2023/03/21 05:13:14;;;;;;;;;;;;;;;;;;2039327;29;20383;-86
2023/03/21 05:14:23;;;;;;;33.88;18.17;;;;;;;;;;1704147;29;10109882;-86
2023/03/21 05:15:23;;;;;;;28.60;16.08;;;;;;;;;;2047591;29;20255;-86
2023/03/21 05:16:25;;;;;;;;;;;;;;;;;;2047956;29;20406;-87
2023/03/21 05:17:27;;;;;;;;;;;;;;;;;;2048015;29;19922;-87
2023/03/21 05:18:29;;;;;;;;;;;;;;;;;;2048089;29;19914;-87
2023/03/21 05:19:39;;;;;;;29.45;16.02;;;;;;;;;;2047698;29;19914;-87
2023/03/21 05:20:43;;;;;;;29.27;17.17;;;;;;;;;;2046721;29;20109;-86
2023/03/21 05:21:43;;;;;;;28.23;16.70;;;;;;;;;;2046769;29;20039;-87
2023/03/21 05:22:49;;;;;;;;;;;;;;;;;;2048147;29;20031;-87
2023/03/21 05:23:57;;;;;;;27.65;14.73;;;;;;;;;;2047870;29;20180;-87
2023/03/21 05:24:57;;;;;;;29.02;16.67;;;;;;;;;;2047971;29;20031;-86
2023/03/21 05:25:57;;;;;;;;;;;;;;;;;;2048914;29;20043;-86
2023/03/21 05:27:01;;;;;;;25.13;16.63;;;;;;;;;;2039966;29;20231;-86
2023/03/21 05:28:02;;;;;;;24.63;15.68;;;;;;;;;;2032117;29;20499;-86
2023/03/21 05:29:02;;;;;;;;;;;;;;;;;;2031484;29;20044;-87
2023/03/21 05:30:11;;;;;;;25.03;15.50;;;;;;;;;;2038842;29;19914;-87
2023/03/21 05:31:15;;;;;;;22.75;14.68;;;;;;;;;;2047712;29;20481;-86
2023/03/21 05:32:15;;;;;;;23.77;15.35;;;;;;;;;;2038796;29;20438;-87
2023/03/21 05:33:16;;;;;;;;;;;;;;;;;;2047444;29;20040;-87
2023/03/21 05:34:16;;;;;;;28.63;15.67;;;;;;;;;;2049125;28;20022;-88
2023/03/21 05:35:19;;;;;;;31.45;15.95;;;;;;;;;;2049724;28;20063;-89
2023/03/21 05:36:19;;;;;;;24.75;15.02;;;;;;;;;;2055063;28;20035;-87
2023/03/21 05:37:23;;;;;;;;;;;;;;;;;;2057673;28;20559;-87
2023/03/21 05:38:23;;;;;;;30.40;16.05;;;;;;;;;;2046807;29;19946;-88
2023/03/21 05:39:26;;;;;;;;;;;;;;;;;;2042961;29;20074;-86
2023/03/21 05:40:27;;;;;;;24.75;15.57;;;;;;;;;;2047065;28;20014;-89
2023/03/21 05:41:29;;;;;;;;;;;;;;;;;;2038939;29;20038;-87
2023/03/21 05:42:30;;;;;;;30.80;17.58;;;;;;;;;;2030539;29;19915;-88
2023/03/21 05:43:32;;;;;;;;;;;;;;;;;;2030296;29;20381;-88
2023/03/21 05:44:32;;;;;;;28.30;17.90;;;;;;;;;;2038311;29;19917;-87
2023/03/21 05:45:33;;;;;;;31.55;18.02;;;;;;;;;;2047259;29;20193;-87
2023/03/21 05:46:33;;;;;;;;;;;;;;;;;;2038901;29;20483;-87
2023/03/21 05:47:33;;;;;;;32.90;18.67;;;;;;;;;;2039227;29;20013;-88
2023/03/21 05:48:34;;;;;;;33.95;19.05;;;;;;;;;;2043010;29;20340;-85
2023/03/21 05:49:35;;;;;;;;;;;;;;;;;;2049254;29;20406;-85
2023/03/21 05:50:37;;;;;;;32.95;19.35;;;;;;;;;;2047576;29;19911;-85
2023/03/21 05:51:38;;;;;;;33.70;19.90;;;;;;;;;;2047259;29;20031;-85
2023/03/21 05:52:39;;;;;;;35.03;18.95;;;;;;;;;;2038517;29;20535;-86
2023/03/21 05:53:40;;;;;;;29.30;17.80;;;;;;;;;;2044980;29;20087;-87
2023/03/21 05:54:40;;;;;;;;;;;;;;;;;;2058038;28;20027;-87
2023/03/21 05:57:06;;;;;;;36.17;21.20;;;;;;;;;;2047250;29;20832;-89
2023/03/21 05:58:06;;;;;;;32.78;20.15;;;;;;;;;;2050635;29;20035;-89
2023/03/21 05:59:07;;;;;;;35.83;20.50;;;;;;;;;;2049367;29;20031;-89
2023/03/21 06:00:09;;;;;;;34.45;20.35;;;;;;;;;;2048628;29;20023;-89
2023/03/21 06:01:10;;;;;;;33.00;20.52;;;;;;;;;;2047048;29;20027;-87
2023/03/21 06:02:11;;;;;;;36.65;21.30;;;;;;;;;;2047873;29;20505;-88
2023/03/21 06:03:11;;;;;;;37.00;21.67;;;;;;;;;;2047175;29;20483;-89
2023/03/21 06:04:12;;;;;;;;;;;;;;;;;;2047555;29;20023;-88
2023/03/21 06:05:12;;;;;;;37.03;21.43;;;;;;;;;;2038475;29;19942;-88
2023/03/21 06:06:12;;;;;;;36.45;20.77;;;;;;;;;;2038694;29;20415;-88
2023/03/21 06:07:14;;;;;;;37.55;21.23;;;;;;;;;;2047086;29;20064;-88
2023/03/21 06:08:15;;;;;;;35.50;21.15;;;;;;;;;;2038472;29;20058;-89
2023/03/21 06:09:17;;;;;;;36.42;20.67;;;;;;;;;;2038462;29;20054;-88
2023/03/21 06:10:17;;;;;;;33.85;20.70;;;;;;;;;;2047677;29;20519;-89
2023/03/21 06:11:43;;;;;;;35.95;22.02;;;;;;;;;;2046931;29;20031;-88
2023/03/21 06:12:45;;;;;;;39.15;20.83;;;;;;;;;;2047050;29;20051;-88
2023/03/21 06:13:45;;;;;;;38.75;22.90;;;;;;;;;;2047384;29;20109;-88
2023/03/21 06:14:46;;;;;;;39.08;23.15;;;;;;;;;;2039041;29;20066;-88
2023/03/21 06:15:46;;;;;;;40.38;23.92;;;;;;;;;;2039055;29;20177;-88
2023/03/21 06:16:47;;;;;;;36.63;22.23;;;;;;;;;;2047526;29;20023;-88
2023/03/21 06:17:47;;;;;;;43.63;23.15;;;;;;;;;;2047905;29;20066;-89
2023/03/21 06:18:47;;;;;;;36.20;21.63;;;;;;;;;;2039361;29;20546;-88
2023/03/21 06:19:48;;;;;;;41.88;22.33;;;;;;;;;;2031407;29;20099;-87
2023/03/21 06:20:48;;;;;;;36.40;20.90;;;;;;;;;;2038630;29;20031;-87
2023/03/21 06:21:49;;;;;;;37.70;21.80;;;;;;;;;;2047243;29;20058;-89
2023/03/21 06:22:49;;;;;;;39.55;22.10;;;;;;;;;;2047397;29;20512;-89
2023/03/21 06:23:51;;;;;;;41.17;21.88;;;;;;;;;;2038526;29;20467;-88
2023/03/21 06:24:51;;;;;;;35.55;20.58;;;;;;;;;;2038351;29;20194;-88
2023/03/21 06:25:52;;;;;;;40.03;21.67;;;;;;;;;;2038206;29;20039;-88
2023/03/21 06:26:52;;;;;;;40.30;24.05;;;;;;;;;;2038865;29;20039;-88
2023/03/21 06:27:52;;;;;;;37.53;22.30;;;;;;;;;;2046292;29;20031;-89
2023/03/21 06:28:53;;;;;;;37.47;18.38;;;;;;;;;;2046407;29;20027;-88
2023/03/21 06:29:56;;;;;;;34.90;19.25;;;;;;;;;;2047218;29;20349;-88
2023/03/21 06:30:57;;;;;;;37.85;18.77;;;;;;;;;;2038104;29;20098;-88